DNIM

Details ICAO DNIM (QOW)
Name IMO
Region Nigeria
Timezone Africa/Lagos (UTC+1.0)
Plans Departing 4
Arriving 5
Stats Elevation 373 ft / 114 m (AMSL)
Location 5.427149° 7.206022°
Runways 1
Magnetic Variation 1.424° W
Sunrise 2018-05-24 05:17:37 UTC / 2018-05-24 06:17:37 Local
Sunset 2018-05-24 17:41:17 UTC / 2018-05-24 18:41:17 Local
Advertisement - Login to hide

Runways

ID Width Length Bearing (true) Bearing (mag) Surface Threshold Offset Overrun Length
17 148 ft / 45 m 8,918 ft / 2,718 m 167.19° 168.61° Asphalt 0 ft / 0 m 0 ft / 0 m
35 148 ft / 45 m 8,918 ft / 2,718 m 347.19° 348.61° Asphalt 0 ft / 0 m 0 ft / 0 m

Map

Weather


0- 5 10 15 20 25 30 35+ Temperature / ° C

Clouds and Precipitation
Forecast for 2018-05-24 00:00 UTC. Updated 2 hours ago

Ground ~20,000 ft ~40,000 ft Winds

METAR

Not found

TAF

TAF DNIM 232135Z 2400/2506 VRB02KT 7000 BKN008 TEMPO 2401/2404 4000 TS BKN007 FEW019CB PROB30 2404/2407 TEMPO 3000 BR BECMG 2407/2409 22012KT BKN010 FEW020CB

Frequencies

Tower 118.40 MHz OWERRI TWR
Warning: Do not use this data for real-world aviation or navigation. No guarantee of current accuracy is given.